This is the latest recevied weather packets stored in our database for station/object F5IOR-13. If no packets are shown the sender has not sent any weather packets the latest 10 day(s).
| Time | Temp. | Humidity | Pressure | Rain* | Wind** | Luminosity | Snow |
|---|---|---|---|---|---|---|---|
| 1777794627 | 15° C | 58% | 986.4 hPa | 4.32 mm | - | - | - |
| 1777794387 | 13.33° C | 72% | 986.8 hPa | 2.03 mm | - | - | - |
| 1777794267 | 13.33° C | 72% | 986.8 hPa | 2.03 mm | - | - | - |
| 1777794147 | 13.33° C | 72% | 986.8 hPa | 2.03 mm | - | - | - |
| 1777794027 | 13.33° C | 72% | 986.8 hPa | 2.03 mm | - | - | - |
| 1777793907 | 13.33° C | 72% | 986.8 hPa | 2.03 mm | - | - | - |
| 1777793847 | 13.33° C | 72% | 986.8 hPa | 2.03 mm | - | - | - |
| 1777793787 | 13.33° C | 72% | 986.8 hPa | 2.03 mm | - | - | - |
| 1777793727 | 13.33° C | 72% | 986.8 hPa | 2.03 mm | - | - | - |
| 1777743505 | 21.11° C | 25% | 988.3 hPa | 0 mm | - | - | - |
| 1777741705 | 21.67° C | 25% | 988.5 hPa | 0 mm | - | - | - |
| 1777739905 | 22.22° C | 23% | 988.6 hPa | 0 mm | - | - | - |
| 1777738105 | 23.33° C | 23% | 988.8 hPa | 0 mm | - | - | - |
| 1777736305 | 23.89° C | 22% | 988.8 hPa | 0 mm | - | - | - |
| 1777734505 | 24.44° C | 22% | 989 hPa | 0 mm | - | - | - |
| 1777732705 | 24.44° C | 23% | 989 hPa | 0 mm | - | - | - |
| 1777730906 | 23.89° C | 25% | 989.4 hPa | 0 mm | - | - | - |
| 1777729105 | 24.44° C | 24% | 989.4 hPa | 0 mm | - | - | - |
| 1777727305 | 24.44° C | 24% | 989.9 hPa | 0 mm | - | - | - |
| 1777725505 | 24.44° C | 25% | 990.2 hPa | 0 mm | - | - | - |
| 1777723705 | 23.89° C | 27% | 990.9 hPa | 0 mm | - | - | - |
| 1777721905 | 23.89° C | 28% | 991 hPa | 0 mm | - | - | - |
| 1777720105 | 22.78° C | 30% | 991.4 hPa | 0 mm | - | - | - |
| 1777718306 | 22.78° C | 30% | 991.5 hPa | 0 mm | - | - | - |
| 1777716505 | 20.56° C | 40% | 992.2 hPa | 0 mm | - | - | - |
* Rain latest hour (hover to see other rain measurements)
** Current wind speed in m/s (hover to see current wind gust speed)